Time;durP1;ratioP1;P1;durP2;ratioP2;P2;SDS_P1;SDS_P2;PMS_P1;PMS_P2;Temp;Humidity;BMP_temperature;BMP_pressure;BME280_temperature;BME280_humidity;BME280_pressure;Samples;Min_cycle;Max_cycle;Signal;HPM_P1;HPM_P2
2023/07/25 00:02:15;;;;;;;3.85;2.10;;;18.10;99.90;;;;;;4967555;28;20023;-73
2023/07/25 00:04:41;;;;;;;4.88;1.88;;;18.10;99.90;;;;;;4966863;28;20035;-73
2023/07/25 00:07:15;;;;;;;4.07;1.80;;;18.10;99.90;;;;;;4969908;28;20136;-75
2023/07/25 00:09:41;;;;;;;2.85;2.00;;;18.10;99.90;;;;;;4965794;28;20501;-73
2023/07/25 00:12:07;;;;;;;4.55;2.40;;;18.10;99.90;;;;;;4970924;28;20058;-75
2023/07/25 00:14:34;;;;;;;3.55;2.25;;;18.10;99.90;;;;;;4969014;28;20039;-74
2023/07/25 00:17:03;;;;;;;5.60;2.25;;;18.10;99.90;;;;;;4969589;28;20026;-75
2023/07/25 00:19:29;;;;;;;7.00;2.22;;;18.00;99.90;;;;;;4969537;28;20497;-73
2023/07/25 00:22:03;;;;;;;7.03;2.22;;;18.00;99.90;;;;;;4967324;28;20088;-73
2023/07/25 00:24:29;;;;;;;2.97;1.80;;;18.00;99.90;;;;;;4970290;28;20053;-73
2023/07/25 00:27:01;;;;;;;3.65;1.90;;;18.00;99.90;;;;;;4967937;28;20498;-74
2023/07/25 00:29:27;;;;;;;2.47;1.90;;;18.00;99.90;;;;;;4973468;28;20026;-73
2023/07/25 00:31:52;;;;;;;2.78;1.92;;;18.00;99.90;;;;;;4965703;28;20034;-74
2023/07/25 00:34:18;;;;;;;3.40;1.95;;;17.90;99.90;;;;;;4966827;28;20381;-73
2023/07/25 00:36:46;;;;;;;2.95;1.83;;;17.90;99.90;;;;;;4969176;28;20046;-73
2023/07/25 00:39:15;;;;;;;4.05;2.08;;;18.00;99.90;;;;;;4970098;28;20087;-73
2023/07/25 00:41:43;;;;;;;10.27;2.40;;;17.90;99.90;;;;;;4966689;28;20034;-73
2023/07/25 00:44:12;;;;;;;4.35;1.98;;;17.90;99.90;;;;;;4967937;28;20039;-74
2023/07/25 00:46:43;;;;;;;3.45;1.92;;;17.90;99.90;;;;;;4964848;28;20029;-74
2023/07/25 00:49:12;;;;;;;4.32;1.92;;;17.90;99.90;;;;;;4972796;28;20489;-74
2023/07/25 00:51:38;;;;;;;3.63;2.15;;;17.90;99.90;;;;;;4967322;28;20134;-74
2023/07/25 00:54:04;;;;;;;4.40;2.20;;;17.90;99.90;;;;;;4970299;28;20717;-73
2023/07/25 00:56:29;;;;;;;3.00;2.00;;;17.90;99.90;;;;;;4966348;28;20035;-73
2023/07/25 00:58:55;;;;;;;3.47;2.13;;;17.90;99.90;;;;;;4968670;28;20037;-73
2023/07/25 01:01:22;;;;;;;3.08;1.90;;;18.00;99.90;;;;;;4967746;28;20462;-73
2023/07/25 01:03:53;;;;;;;3.88;1.95;;;17.90;99.90;;;;;;4964291;28;20045;-73
2023/07/25 01:06:19;;;;;;;4.20;1.85;;;17.90;99.90;;;;;;4969212;28;20026;-75
2023/07/25 01:08:51;;;;;;;5.38;2.05;;;17.90;99.90;;;;;;4961021;28;20041;-74
2023/07/25 01:11:17;;;;;;;4.03;2.25;;;17.80;99.90;;;;;;4967804;28;20042;-74
2023/07/25 01:13:46;;;;;;;4.55;2.05;;;17.90;99.90;;;;;;4965516;28;20162;-74
2023/07/25 01:16:18;;;;;;;5.07;2.20;;;17.80;99.90;;;;;;4981657;28;20065;-74
2023/07/25 01:18:47;;;;;;;3.80;2.20;;;17.80;99.90;;;;;;4967917;28;20030;-73
2023/07/25 01:21:13;;;;;;;4.57;2.72;;;17.80;99.90;;;;;;4969110;28;20027;-73
2023/07/25 01:23:49;;;;;;;3.67;2.30;;;17.80;99.90;;;;;;4981968;28;20042;-74
2023/07/25 01:26:18;;;;;;;5.40;1.95;;;17.80;99.90;;;;;;4968564;28;20119;-74
2023/07/25 01:28:47;;;;;;;4.18;2.20;;;17.80;99.90;;;;;;4965084;28;20052;-73
2023/07/25 01:31:12;;;;;;;6.30;2.22;;;17.80;99.90;;;;;;4963720;28;20031;-74
2023/07/25 01:33:38;;;;;;;4.03;2.03;;;17.80;99.90;;;;;;4964627;28;20396;-74
2023/07/25 01:36:04;;;;;;;4.93;2.40;;;17.80;99.90;;;;;;4968109;28;20046;-74
2023/07/25 01:38:29;;;;;;;8.25;2.10;;;17.80;99.90;;;;;;4985552;28;20034;-74
2023/07/25 01:41:01;;;;;;;6.97;2.88;;;17.80;99.90;;;;;;4968937;28;20034;-74
2023/07/25 01:43:27;;;;;;;4.60;1.73;;;17.80;99.90;;;;;;4964360;28;20023;-74
2023/07/25 01:45:55;;;;;;;4.03;2.58;;;17.80;99.90;;;;;;4965370;28;20143;-74
2023/07/25 01:48:21;;;;;;;4.55;1.80;;;17.80;99.90;;;;;;4965381;28;20437;-73
2023/07/25 01:50:46;;;;;;;6.63;2.00;;;17.80;99.90;;;;;;4968443;28;20030;-73
2023/07/25 01:53:12;;;;;;;3.65;2.30;;;17.70;99.90;;;;;;4965271;28;20028;-73
2023/07/25 01:55:38;;;;;;;4.68;2.30;;;17.80;99.90;;;;;;4965750;28;20077;-73
2023/07/25 01:58:09;;;;;;;2.78;1.83;;;17.80;99.90;;;;;;4971356;28;20027;-73
2023/07/25 02:00:35;;;;;;;3.53;1.85;;;17.70;99.90;;;;;;4966968;28;20022;-74
2023/07/25 02:03:01;;;;;;;3.75;2.88;;;17.70;99.90;;;;;;4976256;28;20071;-74
2023/07/25 02:05:33;;;;;;;6.38;3.45;;;17.70;99.90;;;;;;4959271;28;20023;-73
2023/07/25 02:08:02;;;;;;;6.57;3.45;;;17.60;99.90;;;;;;4966465;28;20469;-73
2023/07/25 02:10:32;;;;;;;4.43;2.40;;;17.60;99.90;;;;;;4966007;28;20431;-74
2023/07/25 02:12:57;;;;;;;5.95;3.13;;;17.60;99.90;;;;;;4962876;28;20117;-74
2023/07/25 02:15:26;;;;;;;6.88;3.00;;;17.50;99.90;;;;;;4965222;28;20054;-75
2023/07/25 02:17:51;;;;;;;5.32;2.92;;;17.50;99.90;;;;;;4967792;28;20035;-73
2023/07/25 02:20:17;;;;;;;6.55;3.15;;;17.40;99.90;;;;;;4968172;28;20025;-73
2023/07/25 02:22:51;;;;;;;5.43;3.00;;;17.40;99.90;;;;;;4965263;28;21195;-72
2023/07/25 02:25:16;;;;;;;;;;;17.40;99.90;;;;;;4972558;28;20473;-72
2023/07/25 02:27:42;;;;;;;7.93;3.40;;;17.30;99.90;;;;;;4969120;28;19910;-72
2023/07/25 02:30:08;;;;;;;7.32;3.13;;;17.30;99.90;;;;;;4970467;28;20031;-73
2023/07/25 02:32:39;;;;;;;6.00;3.17;;;17.30;99.90;;;;;;4964110;28;20521;-73
2023/07/25 02:35:08;;;;;;;6.95;3.92;;;17.30;99.90;;;;;;4970486;28;20110;-73
2023/07/25 02:37:40;;;;;;;6.10;4.28;;;17.20;99.90;;;;;;4967525;28;20032;-72
2023/07/25 02:40:06;;;;;;;7.20;4.55;;;17.20;99.90;;;;;;4971862;28;20035;-72
2023/07/25 02:42:32;;;;;;;5.70;4.10;;;17.20;99.90;;;;;;4967583;28;20031;-72
2023/07/25 02:44:58;;;;;;;6.82;4.93;;;17.10;99.90;;;;;;4971214;28;20034;-73
2023/07/25 02:47:38;;;;;;;8.38;5.53;;;17.10;99.90;;;;;;4987778;28;20529;-71
2023/07/25 02:50:04;;;;;;;9.30;5.20;;;17.10;99.90;;;;;;4982121;28;20019;-73
2023/07/25 02:52:30;;;;;;;7.22;5.93;;;17.10;99.90;;;;;;4966019;28;20038;-72
2023/07/25 02:54:59;;;;;;;7.57;5.93;;;17.00;99.90;;;;;;4965251;28;20043;-73
2023/07/25 02:57:24;;;;;;;8.85;5.68;;;17.00;99.90;;;;;;4969491;28;20082;-73
2023/07/25 02:59:59;;;;;;;6.28;4.88;;;17.00;99.90;;;;;;4967378;28;20031;-73
2023/07/25 03:02:25;;;;;;;11.27;5.28;;;17.00;99.90;;;;;;4966002;28;20039;-73
2023/07/25 03:04:50;;;;;;;6.55;4.20;;;17.00;99.90;;;;;;4967912;28;20035;-73
2023/07/25 03:07:19;;;;;;;6.32;3.95;;;17.00;99.90;;;;;;4971384;28;20350;-72
2023/07/25 03:09:48;;;;;;;7.68;4.30;;;17.00;99.90;;;;;;4973337;28;20498;-72
2023/07/25 03:12:19;;;;;;;7.35;3.85;;;16.90;99.90;;;;;;4976574;28;20077;-73
2023/07/25 03:14:48;;;;;;;6.63;3.75;;;16.90;99.90;;;;;;4972639;28;20138;-72
2023/07/25 03:17:19;;;;;;;5.82;3.80;;;16.80;99.90;;;;;;4973843;28;20058;-72
2023/07/25 03:19:48;;;;;;;8.02;4.18;;;16.80;99.90;;;;;;4978112;28;20039;-72
2023/07/25 03:22:25;;;;;;;7.35;3.83;;;16.80;99.90;;;;;;4971848;28;20046;-73
2023/07/25 03:24:51;;;;;;;5.05;3.67;;;16.80;99.90;;;;;;4983905;28;20030;-73
2023/07/25 03:27:22;;;;;;;6.07;3.50;;;16.80;99.90;;;;;;4972776;28;20426;-72
2023/07/25 03:29:51;;;;;;;6.10;3.65;;;16.80;99.90;;;;;;4967655;28;20532;-73
2023/07/25 03:32:19;;;;;;;6.32;3.45;;;16.80;99.90;;;;;;4972730;28;20298;-72
2023/07/25 03:34:45;;;;;;;4.78;3.67;;;16.70;99.90;;;;;;4974688;28;20054;-72
2023/07/25 03:37:10;;;;;;;7.28;3.55;;;16.70;99.90;;;;;;4975417;28;20058;-72
2023/07/25 03:39:36;;;;;;;10.45;3.80;;;16.70;99.90;;;;;;4971206;28;20027;-71
2023/07/25 03:42:02;;;;;;;6.75;3.50;;;16.60;99.90;;;;;;4971647;28;20040;-73
2023/07/25 03:44:28;;;;;;;7.38;3.22;;;16.60;99.90;;;;;;4968415;28;20038;-72
2023/07/25 03:46:56;;;;;;;5.30;3.42;;;16.60;99.90;;;;;;4968660;28;20031;-71
2023/07/25 03:49:22;;;;;;;4.75;3.13;;;16.60;99.90;;;;;;4969282;28;20102;-72
2023/07/25 03:51:47;;;;;;;5.30;2.85;;;16.60;99.90;;;;;;4974315;28;20582;-72
2023/07/25 03:54:23;;;;;;;3.85;2.95;;;16.60;99.90;;;;;;4973698;28;20074;-72
2023/07/25 03:56:53;;;;;;;7.32;3.78;;;16.60;99.90;;;;;;4974361;28;20030;-72
2023/07/25 03:59:21;;;;;;;8.00;3.05;;;16.60;99.90;;;;;;4977070;28;20030;-72
2023/07/25 04:01:50;;;;;;;5.35;2.70;;;16.60;99.90;;;;;;4976769;28;20127;-72
2023/07/25 04:04:15;;;;;;;6.00;2.90;;;16.60;99.90;;;;;;4971188;28;20027;-72
2023/07/25 04:06:44;;;;;;;4.88;2.40;;;16.60;99.90;;;;;;4976375;28;20388;-72
2023/07/25 04:09:10;;;;;;;5.28;2.85;;;16.60;99.90;;;;;;4976187;28;20622;-72
2023/07/25 04:11:35;;;;;;;8.75;3.42;;;16.60;99.90;;;;;;4978332;28;20084;-72
2023/07/25 04:14:04;;;;;;;6.75;3.10;;;16.60;99.90;;;;;;4975792;28;20077;-72
2023/07/25 04:16:30;;;;;;;5.00;3.25;;;16.50;99.90;;;;;;4991790;28;20505;-72
2023/07/25 04:18:58;;;;;;;4.63;3.33;;;16.60;99.90;;;;;;4968547;28;20058;-72
2023/07/25 04:21:30;;;;;;;9.05;3.17;;;16.60;99.90;;;;;;4977680;28;20026;-72
2023/07/25 04:23:58;;;;;;;4.40;2.92;;;16.60;99.90;;;;;;4973063;28;20037;-72
2023/07/25 04:26:24;;;;;;;4.65;2.72;;;16.60;99.90;;;;;;4975849;28;20018;-71
2023/07/25 04:28:50;;;;;;;5.18;2.70;;;16.60;99.90;;;;;;4974854;28;20053;-72
2023/07/25 04:31:18;;;;;;;6.13;3.20;;;16.60;99.90;;;;;;4974268;28;20034;-71
2023/07/25 04:33:47;;;;;;;4.95;2.95;;;16.60;99.90;;;;;;4971520;28;20563;-71
2023/07/25 04:36:13;;;;;;;5.78;3.03;;;16.60;99.90;;;;;;4975506;28;20069;-71
2023/07/25 04:38:39;;;;;;;5.05;3.08;;;16.60;99.90;;;;;;4975630;28;20044;-71
2023/07/25 04:41:16;;;;;;;4.88;2.80;;;16.60;99.90;;;;;;4972112;28;20398;-72
2023/07/25 04:43:48;;;;;;;5.90;3.20;;;16.60;99.90;;;;;;4991638;28;20477;-72
2023/07/25 04:46:17;;;;;;;4.78;2.70;;;16.70;99.90;;;;;;4976012;28;20022;-71
2023/07/25 04:48:48;;;;;;;5.82;3.38;;;16.70;99.90;;;;;;4975051;28;20081;-72
2023/07/25 04:51:20;;;;;;;4.57;2.97;;;16.70;99.90;;;;;;4985782;28;20110;-72
2023/07/25 04:53:54;;;;;;;5.65;3.28;;;16.80;99.90;;;;;;4976920;28;20035;-71
2023/07/25 04:56:23;;;;;;;5.18;3.30;;;16.80;99.90;;;;;;4965563;28;20034;-72
2023/07/25 04:58:54;;;;;;;7.97;3.42;;;16.80;99.90;;;;;;4990890;28;20031;-72
2023/07/25 05:01:20;;;;;;;6.07;3.33;;;16.90;99.90;;;;;;4967978;28;20030;-72
2023/07/25 05:03:48;;;;;;;6.45;2.90;;;16.90;99.90;;;;;;4973020;28;20037;-71
2023/07/25 05:06:17;;;;;;;5.25;3.42;;;16.90;99.90;;;;;;4980391;28;20031;-72
2023/07/25 05:08:42;;;;;;;5.88;2.92;;;16.90;99.90;;;;;;4972249;28;20605;-72
2023/07/25 05:11:08;;;;;;;7.63;3.50;;;17.00;99.90;;;;;;4972687;28;20029;-72
2023/07/25 05:13:37;;;;;;;6.60;3.63;;;17.00;99.90;;;;;;4970013;28;20031;-72
2023/07/25 05:16:05;;;;;;;5.75;3.10;;;17.00;99.90;;;;;;4965823;28;20037;-72
2023/07/25 05:18:43;;;;;;;5.65;3.10;;;17.10;99.90;;;;;;4972647;28;20037;-72
2023/07/25 05:21:09;;;;;;;5.20;2.85;;;17.10;99.90;;;;;;4972114;28;20034;-71
2023/07/25 05:23:59;;;;;;;6.53;2.97;;;17.10;99.90;;;;;;4972339;28;20094;-72
2023/07/25 05:26:24;;;;;;;7.70;3.40;;;17.10;99.90;;;;;;4964311;28;20485;-72
2023/07/25 05:28:53;;;;;;;5.43;3.42;;;17.10;99.90;;;;;;4974436;28;20038;-72
2023/07/25 05:31:19;;;;;;;5.72;3.38;;;17.00;99.90;;;;;;4965925;28;20042;-72
2023/07/25 05:33:50;;;;;;;4.88;3.65;;;17.00;99.90;;;;;;4968332;28;20043;-71
2023/07/25 05:36:25;;;;;;;7.55;3.65;;;17.00;99.90;;;;;;4982246;28;20031;-72
2023/07/25 05:38:54;;;;;;;4.90;3.33;;;17.00;99.90;;;;;;4967457;28;21387;-72
2023/07/25 05:41:23;;;;;;;6.95;3.83;;;17.00;99.90;;;;;;4969381;28;20034;-73
2023/07/25 05:43:48;;;;;;;7.53;4.43;;;16.90;99.90;;;;;;4966194;28;20132;-70
2023/07/25 05:46:17;;;;;;;6.38;3.42;;;16.90;99.90;;;;;;4965519;28;20537;-70
2023/07/25 05:48:42;;;;;;;6.50;3.55;;;16.90;99.90;;;;;;4968975;28;20026;-69
2023/07/25 05:51:09;;;;;;;6.50;3.53;;;17.00;99.90;;;;;;4967825;28;20046;-71
2023/07/25 05:53:35;;;;;;;7.47;3.78;;;17.00;99.90;;;;;;4969582;28;20031;-70
2023/07/25 05:56:01;;;;;;;5.80;3.40;;;17.00;99.90;;;;;;4966963;28;20038;-69
2023/07/25 05:58:27;;;;;;;5.78;4.03;;;17.00;99.90;;;;;;4965123;28;20129;-69
2023/07/25 06:00:53;;;;;;;4.95;3.15;;;17.10;99.90;;;;;;4969073;28;20031;-69
2023/07/25 06:03:19;;;;;;;7.60;3.88;;;17.10;99.90;;;;;;4967396;28;20022;-71
2023/07/25 06:05:47;;;;;;;6.90;3.33;;;17.20;99.90;;;;;;4968649;28;20023;-70
2023/07/25 06:08:16;;;;;;;4.72;3.20;;;17.30;99.90;;;;;;4964824;28;20035;-70
2023/07/25 06:10:48;;;;;;;6.30;3.55;;;17.30;99.90;;;;;;4969419;28;20425;-70
2023/07/25 06:13:20;;;;;;;6.85;4.22;;;17.30;99.90;;;;;;4983238;28;20027;-70
2023/07/25 06:15:49;;;;;;;9.82;3.85;;;17.40;99.90;;;;;;4968162;28;20081;-70
2023/07/25 06:18:17;;;;;;;7.03;4.28;;;17.40;99.90;;;;;;4967902;28;20039;-70
2023/07/25 06:20:49;;;;;;;7.97;4.38;;;17.40;99.90;;;;;;4969961;28;20066;-70
2023/07/25 06:23:19;;;;;;;9.63;5.22;;;17.50;99.90;;;;;;4968922;28;20114;-72
2023/07/25 06:25:48;;;;;;;14.32;5.57;;;17.50;99.90;;;;;;4964631;28;20628;-73
2023/07/25 06:28:20;;;;;;;8.60;4.30;;;17.60;99.90;;;;;;4972668;28;20027;-72
2023/07/25 06:30:48;;;;;;;7.45;3.97;;;17.50;99.90;;;;;;4967562;28;20410;-73
2023/07/25 06:33:17;;;;;;;12.52;4.60;;;17.50;99.90;;;;;;4964582;28;20434;-73
2023/07/25 06:35:43;;;;;;;9.40;4.57;;;17.50;99.90;;;;;;4966535;28;20028;-72
2023/07/25 06:38:08;;;;;;;8.45;3.67;;;17.50;99.90;;;;;;4970979;28;20039;-73
2023/07/25 06:40:34;;;;;;;7.47;3.97;;;17.50;99.90;;;;;;4974620;28;20046;-72
2023/07/25 06:43:05;;;;;;;7.88;4.25;;;17.60;99.90;;;;;;4973038;28;20026;-72
2023/07/25 06:45:31;;;;;;;7.97;3.33;;;17.50;99.90;;;;;;4987642;28;20556;-72
2023/07/25 06:48:06;;;;;;;6.43;3.50;;;17.60;99.90;;;;;;4972879;28;20022;-72
2023/07/25 06:50:33;;;;;;;5.75;3.47;;;17.60;99.90;;;;;;4973838;28;20031;-71
2023/07/25 06:52:59;;;;;;;7.18;3.42;;;17.60;99.90;;;;;;4974327;28;20023;-71
2023/07/25 06:55:25;;;;;;;6.80;3.20;;;17.60;99.90;;;;;;4970981;28;20042;-71
2023/07/25 06:57:51;;;;;;;6.20;3.58;;;17.60;99.90;;;;;;4972132;28;20115;-71
2023/07/25 07:00:21;;;;;;;4.50;3.40;;;17.60;99.90;;;;;;4973089;28;20107;-71
2023/07/25 07:02:47;;;;;;;7.72;2.47;;;17.60;99.90;;;;;;4975262;28;20504;-72
2023/07/25 07:05:12;;;;;;;6.03;3.20;;;17.60;99.90;;;;;;4973765;28;20014;-72
2023/07/25 07:07:40;;;;;;;8.15;2.63;;;17.70;99.90;;;;;;4967572;28;22118;-72
2023/07/25 07:10:12;;;;;;;7.05;2.85;;;17.80;99.90;;;;;;4962436;28;20034;-72
2023/07/25 07:12:45;;;;;;;5.25;2.58;;;17.80;99.90;;;;;;4966003;28;20165;-72
2023/07/25 07:15:11;;;;;;;5.78;2.60;;;17.90;99.90;;;;;;4967560;28;20026;-72
2023/07/25 07:17:37;;;;;;;5.10;2.38;;;17.90;99.90;;;;;;4969348;28;20129;-72
2023/07/25 07:20:18;;;;;;;13.00;3.80;;;17.90;99.90;;;;;;4968448;28;20122;-72
2023/07/25 07:22:44;;;;;;;5.60;2.90;;;18.00;99.90;;;;;;4968528;28;20034;-72
2023/07/25 07:25:09;;;;;;;7.38;3.08;;;18.10;99.90;;;;;;4968519;28;20031;-72
2023/07/25 07:27:41;;;;;;;7.40;2.95;;;18.10;99.90;;;;;;4970795;28;20130;-71
2023/07/25 07:30:07;;;;;;;17.02;3.50;;;18.20;99.90;;;;;;4969075;28;20481;-72
2023/07/25 07:32:42;;;;;;;5.32;3.03;;;18.30;99.90;;;;;;4967034;28;20646;-72
2023/07/25 07:35:08;;;;;;;5.00;2.95;;;18.40;99.90;;;;;;4971477;28;20030;-72
2023/07/25 07:37:37;;;;;;;3.53;2.28;;;18.40;99.90;;;;;;4962158;28;20041;-73
2023/07/25 07:40:09;;;;;;;3.65;2.22;;;18.50;99.90;;;;;;4965382;28;20503;-72
2023/07/25 07:42:40;;;;;;;5.50;2.53;;;18.50;99.90;;;;;;4979182;28;20201;-72
2023/07/25 07:45:15;;;;;;;6.03;2.80;;;18.60;99.90;;;;;;4969025;28;20037;-72
2023/07/25 07:47:40;;;;;;;5.03;2.47;;;18.60;99.90;;;;;;4966188;28;20077;-72
2023/07/25 07:50:12;;;;;;;6.18;2.70;;;18.70;99.90;;;;;;4980975;28;20027;-72
2023/07/25 07:52:41;;;;;;;3.75;2.50;;;18.80;99.90;;;;;;4965895;28;20029;-72
2023/07/25 07:55:13;;;;;;;4.20;2.42;;;18.90;99.90;;;;;;4968286;28;20430;-72
2023/07/25 07:57:44;;;;;;;4.53;2.55;;;19.00;99.90;;;;;;4968144;28;20059;-72
2023/07/25 08:00:11;;;;;;;4.97;2.63;;;19.00;99.90;;;;;;4972389;28;20105;-72
2023/07/25 08:02:37;;;;;;;4.90;2.45;;;19.10;99.90;;;;;;4969670;28;20049;-72
2023/07/25 08:05:10;;;;;;;4.85;2.55;;;19.20;99.90;;;;;;4967940;28;20394;-72
2023/07/25 08:07:36;;;;;;;4.85;3.22;;;19.20;99.90;;;;;;4969127;28;20027;-72
2023/07/25 08:10:03;;;;;;;7.03;3.00;;;19.20;99.90;;;;;;4969852;28;20488;-73
2023/07/25 08:12:38;;;;;;;8.20;2.75;;;19.30;99.90;;;;;;4964779;28;20177;-72
2023/07/25 08:15:04;;;;;;;4.30;3.35;;;19.40;99.90;;;;;;4966511;28;20038;-72
2023/07/25 08:17:30;;;;;;;5.53;3.03;;;19.40;99.90;;;;;;4972017;28;20055;-72
2023/07/25 08:19:59;;;;;;;5.50;3.28;;;19.50;99.90;;;;;;4968110;28;20061;-72
2023/07/25 08:22:25;;;;;;;5.10;3.08;;;19.60;99.90;;;;;;4964695;28;20038;-72
2023/07/25 08:24:53;;;;;;;4.28;2.70;;;19.80;99.90;;;;;;4966405;28;20092;-72
2023/07/25 08:27:19;;;;;;;5.68;2.70;;;20.00;99.90;;;;;;4964780;28;20039;-72
2023/07/25 08:29:51;;;;;;;4.47;2.05;;;20.10;99.90;;;;;;4969930;28;20205;-72
2023/07/25 08:32:17;;;;;;;3.63;1.80;;;20.20;99.90;;;;;;4961561;28;20026;-72
2023/07/25 08:34:43;;;;;;;5.70;1.70;;;20.30;99.90;;;;;;4981153;28;20026;-73
2023/07/25 08:37:08;;;;;;;5.82;1.98;;;20.30;99.90;;;;;;4967693;28;20472;-72
2023/07/25 08:39:37;;;;;;;2.67;1.73;;;20.40;99.90;;;;;;4964770;28;20038;-72
2023/07/25 08:42:09;;;;;;;2.40;1.60;;;20.40;99.90;;;;;;4966254;28;20022;-72
2023/07/25 08:44:42;;;;;;;4.40;1.63;;;20.40;99.90;;;;;;4969280;28;20038;-72
2023/07/25 08:47:21;;;;;;;3.78;1.73;;;20.50;99.90;;;;;;4966005;28;20480;-72
2023/07/25 08:49:47;;;;;;;4.20;1.67;;;20.50;99.90;;;;;;4968073;28;20031;-72
2023/07/25 08:52:17;;;;;;;2.58;1.60;;;20.40;99.90;;;;;;4966998;28;20438;-72
2023/07/25 08:54:46;;;;;;;3.55;1.52;;;20.40;99.90;;;;;;4967600;28;20097;-72
2023/07/25 08:57:13;;;;;;;2.20;1.30;;;20.30;99.90;;;;;;4965176;28;20371;-72
2023/07/25 08:59:39;;;;;;;2.75;1.50;;;20.20;99.90;;;;;;4968690;28;20027;-73
2023/07/25 09:02:12;;;;;;;2.47;1.15;;;20.10;99.90;;;;;;4960828;28;20041;-72
2023/07/25 09:04:41;;;;;;;2.08;1.20;;;20.10;99.90;;;;;;4969334;28;20041;-72
2023/07/25 09:07:13;;;;;;;1.80;1.30;;;20.10;99.90;;;;;;4978454;28;20023;-72
2023/07/25 09:09:38;;;;;;;2.80;1.17;;;20.20;99.90;;;;;;4969080;28;20041;-73
2023/07/25 09:12:07;;;;;;;2.22;1.08;;;20.20;99.90;;;;;;4964187;28;20478;-74
2023/07/25 09:14:42;;;;;;;2.17;1.35;;;20.20;99.90;;;;;;4982407;28;20502;-72
2023/07/25 09:17:10;;;;;;;3.28;1.10;;;20.30;99.90;;;;;;4967131;28;20027;-72
2023/07/25 09:19:48;;;;;;;4.35;1.48;;;20.40;99.90;;;;;;4964505;28;20029;-72
2023/07/25 09:22:31;;;;;;;1.77;0.98;;;20.60;99.90;;;;;;4982387;28;20030;-73
2023/07/25 09:24:58;;;;;;;1.73;0.90;;;20.70;99.90;;;;;;4963740;28;20027;-73
2023/07/25 09:27:25;;;;;;;1.38;0.80;;;20.70;99.90;;;;;;4964690;28;20490;-73
2023/07/25 09:29:52;;;;;;;1.27;0.77;;;20.70;99.90;;;;;;4963146;28;20031;-72
2023/07/25 09:32:21;;;;;;;1.25;0.90;;;20.70;99.90;;;;;;4965657;28;20035;-72
2023/07/25 09:34:56;;;;;;;4.90;0.88;;;20.70;99.90;;;;;;4966891;28;20042;-72
2023/07/25 09:37:22;;;;;;;2.63;1.15;;;20.70;99.90;;;;;;4968674;28;20034;-72
2023/07/25 09:39:49;;;;;;;1.25;0.95;;;20.80;99.90;;;;;;4964762;28;20085;-72
2023/07/25 09:42:14;;;;;;;1.70;0.90;;;20.80;99.90;;;;;;4967533;28;20034;-73
2023/07/25 09:44:47;;;;;;;1.40;0.80;;;20.80;99.90;;;;;;4966565;28;20485;-73
2023/07/25 09:47:14;;;;;;;2.50;1.08;;;21.00;99.90;;;;;;4966683;28;20027;-72
2023/07/25 09:49:48;;;;;;;1.45;0.80;;;21.00;99.90;;;;;;4978811;28;20031;-73
2023/07/25 09:52:15;;;;;;;1.80;0.82;;;21.10;99.90;;;;;;4967931;28;20097;-73
2023/07/25 09:54:46;;;;;;;2.33;1.08;;;21.20;99.90;;;;;;4977028;28;20031;-73
2023/07/25 09:57:12;;;;;;;2.15;1.23;;;21.30;99.90;;;;;;4966319;28;20561;-73
2023/07/25 09:59:38;;;;;;;1.83;1.10;;;21.40;99.90;;;;;;4963107;28;20176;-73
2023/07/25 10:02:04;;;;;;;2.15;1.20;;;21.60;99.90;;;;;;4963832;28;20031;-73
2023/07/25 10:04:30;;;;;;;3.38;1.77;;;21.80;99.90;;;;;;4964596;28;20031;-73
2023/07/25 10:06:59;;;;;;;2.95;1.60;;;21.90;99.90;;;;;;4965886;28;20035;-73
2023/07/25 10:09:25;;;;;;;2.70;1.20;;;22.00;99.90;;;;;;4965766;28;20105;-73
2023/07/25 10:11:53;;;;;;;4.05;1.20;;;22.10;99.90;;;;;;4963782;28;20026;-74
2023/07/25 10:14:19;;;;;;;1.92;1.15;;;22.10;99.90;;;;;;4964125;28;20022;-73
2023/07/25 10:16:46;;;;;;;2.75;1.23;;;22.20;99.90;;;;;;4966476;28;20093;-72
2023/07/25 10:19:11;;;;;;;2.75;1.20;;;22.30;99.50;;;;;;4978767;28;20058;-73
2023/07/25 10:21:52;;;;;;;2.55;1.10;;;22.30;98.70;;;;;;4960974;28;20122;-74
2023/07/25 10:24:21;;;;;;;3.05;1.60;;;22.40;99.10;;;;;;4967000;28;20023;-73
2023/07/25 10:26:57;;;;;;;2.50;1.23;;;22.40;99.40;;;;;;4965382;28;20018;-73
2023/07/25 10:29:42;;;;;;;3.58;1.27;;;22.50;98.80;;;;;;4966448;28;20027;-73
2023/07/25 10:32:19;;;;;;;2.33;1.33;;;22.50;98.60;;;;;;4960883;28;20030;-73
2023/07/25 10:35:01;;;;;;;1.45;0.93;;;22.50;98.60;;;;;;4965770;28;20043;-74
2023/07/25 10:37:35;;;;;;;3.38;1.20;;;22.50;98.60;;;;;;4964999;28;20041;-73
2023/07/25 10:40:02;;;;;;;3.95;1.27;;;22.50;98.80;;;;;;4968873;28;20035;-74
2023/07/25 10:42:52;;;;;;;1.95;1.27;;;22.40;98.20;;;;;;4965150;28;20031;-73
2023/07/25 10:45:29;;;;;;;1.77;1.30;;;22.40;98.80;;;;;;4958713;28;20043;-73
2023/07/25 10:47:59;;;;;;;1.27;1.02;;;22.30;99.10;;;;;;4965766;28;20027;-72
2023/07/25 10:50:49;;;;;;;1.45;1.10;;;22.20;99.90;;;;;;4965974;28;20293;-72
2023/07/25 10:53:24;;;;;;;4.13;1.35;;;22.20;99.90;;;;;;4963483;28;20453;-73
2023/07/25 10:56:04;;;;;;;2.75;1.30;;;22.20;99.90;;;;;;4967011;28;20035;-73
2023/07/25 10:58:33;;;;;;;4.97;1.58;;;22.10;99.90;;;;;;4967483;28;20580;-72
2023/07/25 11:01:00;;;;;;;1.73;1.05;;;22.20;99.70;;;;;;4960513;28;20070;-72
2023/07/25 11:03:34;;;;;;;2.95;1.10;;;22.20;99.20;;;;;;4964405;28;20107;-72
2023/07/25 11:06:09;;;;;;;3.28;1.15;;;22.30;99.20;;;;;;4972026;28;20022;-72
2023/07/25 11:08:36;;;;;;;2.88;1.00;;;22.20;97.80;;;;;;4966685;28;20027;-73
2023/07/25 11:11:03;;;;;;;1.38;0.90;;;22.20;97.90;;;;;;4963080;28;20508;-72
2023/07/25 11:13:33;;;;;;;1.77;0.80;;;22.30;98.00;;;;;;4977556;28;20322;-73
2023/07/25 11:16:02;;;;;;;3.72;1.20;;;22.40;98.20;;;;;;4969376;28;20039;-72
2023/07/25 11:18:27;;;;;;;1.48;1.10;;;22.60;98.20;;;;;;4959634;28;20121;-72
2023/07/25 11:21:04;;;;;;;2.88;0.90;;;22.70;98.00;;;;;;4965892;28;20431;-71
2023/07/25 11:23:30;;;;;;;3.92;1.00;;;22.70;97.40;;;;;;4967381;28;20027;-72
2023/07/25 11:26:02;;;;;;;3.45;0.80;;;22.70;96.80;;;;;;4966821;28;20031;-71
2023/07/25 11:28:31;;;;;;;1.52;0.80;;;22.70;97.00;;;;;;4969785;28;20030;-71
2023/07/25 11:30:57;;;;;;;2.67;0.88;;;22.60;96.60;;;;;;4968570;28;20030;-72
2023/07/25 11:33:41;;;;;;;3.50;0.93;;;22.50;96.60;;;;;;4969644;28;20147;-70
2023/07/25 11:36:12;;;;;;;1.58;0.88;;;22.50;97.40;;;;;;4971360;28;20019;-70
2023/07/25 11:38:38;;;;;;;3.60;1.13;;;22.60;97.50;;;;;;4967765;28;20076;-70
2023/07/25 11:41:07;;;;;;;2.75;1.23;;;22.70;97.30;;;;;;4968503;28;20109;-72
2023/07/25 11:43:34;;;;;;;4.53;1.20;;;22.70;96.70;;;;;;4960683;28;20110;-71
2023/07/25 11:46:03;;;;;;;2.58;1.20;;;22.60;96.20;;;;;;4966355;28;20035;-72
2023/07/25 11:48:29;;;;;;;2.85;0.98;;;22.50;95.70;;;;;;4962643;28;20018;-73
2023/07/25 11:50:58;;;;;;;2.33;0.82;;;22.50;95.80;;;;;;4966271;28;20058;-71
2023/07/25 11:53:30;;;;;;;4.15;0.90;;;22.50;95.90;;;;;;4979325;28;20041;-71
2023/07/25 11:56:00;;;;;;;2.58;0.70;;;22.50;95.80;;;;;;4963625;28;20054;-77
2023/07/25 11:58:25;;;;;;;1.77;1.13;;;22.50;96.00;;;;;;4963268;28;20027;-73
2023/07/25 12:00:54;;;;;;;2.00;0.80;;;22.60;96.20;;;;;;4971410;28;20042;-73
2023/07/25 12:03:21;;;;;;;2.13;0.80;;;22.70;96.10;;;;;;4966766;28;20118;-73
2023/07/25 12:05:55;;;;;;;3.65;1.20;;;22.80;95.80;;;;;;4971644;28;20042;-73
2023/07/25 12:08:40;;;;;;;1.55;0.93;;;23.00;95.60;;;;;;4973159;28;20545;-74
2023/07/25 12:11:14;;;;;;;2.60;0.80;;;23.20;95.20;;;;;;4976535;28;20026;-73
2023/07/25 12:13:55;;;;;;;3.65;1.10;;;23.30;95.00;;;;;;4970435;28;20093;-72
2023/07/25 12:16:46;;;;;;;2.22;1.02;;;23.40;95.10;;;;;;4976241;28;20034;-74
2023/07/25 12:19:14;;;;;;;2.15;0.80;;;23.50;94.20;;;;;;4974394;28;20031;-73
2023/07/25 12:21:43;;;;;;;1.58;0.98;;;23.50;93.20;;;;;;4989372;28;20035;-73
2023/07/25 12:24:16;;;;;;;2.58;0.90;;;23.40;92.70;;;;;;4976789;28;20023;-73
2023/07/25 12:26:54;;;;;;;1.53;0.90;;;23.40;93.10;;;;;;4971991;28;20027;-73
2023/07/25 12:29:24;;;;;;;1.90;0.80;;;23.40;93.30;;;;;;4987102;28;20077;-73
2023/07/25 12:31:51;;;;;;;2.15;1.20;;;23.30;93.30;;;;;;4973488;28;20040;-74
2023/07/25 12:34:20;;;;;;;1.55;0.88;;;23.20;92.40;;;;;;4972289;28;20027;-73
2023/07/25 12:36:50;;;;;;;1.13;0.90;;;23.20;92.30;;;;;;4974402;28;20041;-73
2023/07/25 12:39:19;;;;;;;1.63;0.82;;;23.10;92.50;;;;;;4971749;28;20043;-74
2023/07/25 12:41:48;;;;;;;3.78;1.08;;;23.10;92.60;;;;;;4970833;28;20031;-74
2023/07/25 12:44:20;;;;;;;1.60;1.00;;;23.10;92.30;;;;;;4972802;28;20031;-74
2023/07/25 12:46:48;;;;;;;1.88;1.13;;;23.20;92.20;;;;;;4971720;28;20043;-73
2023/07/25 12:49:14;;;;;;;2.28;0.90;;;23.30;91.90;;;;;;4973707;28;20102;-73
2023/07/25 12:51:40;;;;;;;2.28;1.00;;;23.40;91.90;;;;;;4971020;28;20102;-73
2023/07/25 12:54:05;;;;;;;1.92;1.10;;;23.40;91.70;;;;;;4973496;28;20050;-74
2023/07/25 12:56:34;;;;;;;1.77;0.80;;;23.50;91.40;;;;;;4980038;28;20026;-74
2023/07/25 12:59:00;;;;;;;1.45;0.90;;;23.50;90.80;;;;;;4973250;28;20034;-74